Time;durP1;ratioP1;P1;durP2;ratioP2;P2;SDS_P1;SDS_P2;PMS_P1;PMS_P2;Temp;Humidity;BMP_temperature;BMP_pressure;BME280_temperature;BME280_humidity;BME280_pressure;Samples;Min_cycle;Max_cycle;Signal;HPM_P1;HPM_P2
2022/11/19 00:01:46;;;;;;;9.60;5.00;;;;;;;29.10;57.55;100820.75;5081510;27;65509;-37
2022/11/19 00:04:17;;;;;;;11.23;4.97;;;;;;;29.22;57.96;100839.84;5087549;27;69049;-37
2022/11/19 00:06:49;;;;;;;14.98;5.50;;;;;;;29.25;58.14;100845.66;5092774;27;66446;-38
2022/11/19 00:09:21;;;;;;;5.93;4.93;;;;;;;29.27;57.93;100848.97;5073694;27;69016;-38
2022/11/19 00:14:41;;;;;;;5.65;5.15;;;;;;;29.31;58.57;100844.84;5078545;27;69396;-38
2022/11/19 00:17:12;;;;;;;6.55;4.85;;;;;;;29.32;58.46;100841.09;5082528;27;66349;-38
2022/11/19 00:19:43;;;;;;;5.88;5.35;;;;;;;29.34;58.85;100847.13;5087448;27;71279;-38
2022/11/19 00:22:15;;;;;;;5.47;5.03;;;;;;;29.35;58.92;100840.66;5088292;27;64744;-39
2022/11/19 00:24:46;;;;;;;9.25;5.43;;;;;;;29.30;59.70;100840.44;5087579;27;69946;-38
2022/11/19 00:27:17;;;;;;;10.93;5.60;;;;;;;29.42;59.80;100850.63;5084872;27;65419;-38
2022/11/19 00:29:48;;;;;;;12.02;5.43;;;;;;;29.25;60.22;100826.75;5088813;27;70220;-37
2022/11/19 00:32:20;;;;;;;26.67;5.60;;;;;;;29.48;61.66;100855.19;5086851;27;65647;-36
2022/11/19 00:34:51;;;;;;;33.33;6.93;;;;;;;29.43;68.20;100844.19;5084484;27;70608;-38
2022/11/19 00:37:22;;;;;;;10.83;6.57;;;;;;;29.39;69.99;100858.13;5084555;27;66633;-39
2022/11/19 00:39:53;;;;;;;14.77;6.00;;;;;;;29.36;70.88;100855.84;5085361;27;69751;-37
2022/11/19 00:42:25;;;;;;;12.05;6.50;;;;;;;29.28;72.65;100861.47;5081644;27;66790;-37
2022/11/19 00:44:56;;;;;;;8.30;7.57;;;;;;;29.13;73.14;100847.34;5080797;27;69402;-37
2022/11/19 00:47:28;;;;;;;11.23;7.70;;;;;;;29.11;73.88;100865.63;5081981;27;65496;-37
2022/11/19 00:49:59;;;;;;;13.75;7.93;;;;;;;29.06;73.95;100841.97;5081716;27;70573;-38
2022/11/19 00:52:30;;;;;;;10.15;9.20;;;;;;;29.06;73.28;100860.00;5076625;27;66804;-39
2022/11/19 00:55:01;;;;;;;11.35;9.45;;;;;;;29.05;74.48;100869.16;5083316;27;69479;-38
2022/11/19 00:57:32;;;;;;;9.07;8.35;;;;;;;29.04;75.71;100872.91;5090304;27;66524;-36
2022/11/19 01:00:03;;;;;;;10.95;8.88;;;;;;;28.93;75.15;100847.31;5084344;27;70606;-39
2022/11/19 01:02:35;;;;;;;14.68;8.60;;;;;;;28.90;75.56;100859.38;5080496;27;66190;-42
2022/11/19 01:05:06;;;;;;;7.33;6.10;;;;;;;28.95;71.73;100858.75;5084192;27;69874;-36
2022/11/19 01:07:37;;;;;;;;;;;;;;;28.79;74.03;100868.09;5088830;27;66197;-36
2022/11/19 01:10:09;;;;;;;5.95;5.45;;;;;;;29.13;70.10;100871.66;5079030;27;69544;-38
2022/11/19 01:15:31;;;;;;;5.90;5.45;;;;;;;29.10;70.31;100828.84;5045302;27;70489;-36
2022/11/19 01:18:03;;;;;;;5.80;5.40;;;;;;;29.31;69.73;100855.66;5082698;27;66269;-37
2022/11/19 01:20:34;;;;;;;6.13;5.57;;;;;;;29.43;69.41;100863.09;5077998;27;70175;-42
2022/11/19 01:23:05;;;;;;;6.25;5.75;;;;;;;29.32;69.37;100835.69;5086883;27;66767;-37
2022/11/19 01:25:36;;;;;;;6.25;5.85;;;;;;;29.37;69.59;100844.00;5088057;27;69620;-36
2022/11/19 01:28:08;;;;;;;7.90;5.60;;;;;;;29.57;69.50;100865.56;5088705;27;65605;-39
2022/11/19 01:30:41;;;;;;;6.10;5.65;;;;;;;29.64;69.23;100876.38;5088428;27;70047;-39
2022/11/19 01:33:12;;;;;;;6.40;6.00;;;;;;;29.60;69.19;100858.91;5064860;27;66745;-37
2022/11/19 01:35:43;;;;;;;6.47;5.87;;;;;;;29.70;69.04;100870.16;5097056;27;69309;-37
2022/11/19 01:38:14;;;;;;;5.80;5.47;;;;;;;29.66;69.52;100862.66;5088312;27;65738;-37
2022/11/19 01:40:45;;;;;;;6.35;5.90;;;;;;;29.78;69.26;100871.75;5084995;27;71523;-38
2022/11/19 01:43:16;;;;;;;6.93;6.43;;;;;;;29.80;68.67;100877.78;5083334;27;66106;-36
2022/11/19 01:45:53;;;;;;;6.70;5.97;;;;;;;29.81;69.00;100864.06;5095440;27;69315;-36
2022/11/19 01:48:29;;;;;;;6.93;6.32;;;;;;;29.84;68.64;100855.53;5088924;27;66302;-37
2022/11/19 01:51:20;;;;;;;8.95;7.18;;;;;;;29.82;69.15;100841.38;5079942;27;69601;-37
2022/11/19 01:53:56;;;;;;;7.00;6.50;;;;;;;29.45;68.42;100779.94;5051261;27;66148;-38
2022/11/19 01:56:29;;;;;;;6.95;6.45;;;;;;;29.95;69.23;100864.00;5091320;27;69607;-38
2022/11/19 01:59:08;;;;;;;7.18;6.68;;;;;;;30.00;68.89;100866.91;5084713;27;66631;-37
2022/11/19 02:01:40;;;;;;;7.97;7.18;;;;;;;29.96;68.99;100852.97;5087803;27;70524;-36
2022/11/19 02:04:13;;;;;;;6.40;6.00;;;;;;;29.94;68.82;100843.41;5085263;27;66207;-37
2022/11/19 02:06:45;;;;;;;6.40;6.00;;;;;;;30.06;69.07;100855.22;5080693;27;70535;-39
2022/11/19 02:09:17;;;;;;;6.72;6.18;;;;;;;30.08;68.70;100853.13;5074221;27;66134;-37
2022/11/19 02:12:14;;;;;;;6.68;6.13;;;;;;;30.09;69.00;100852.09;5083715;27;70183;-38
2022/11/19 02:15:07;;;;;;;6.63;6.07;;;;;;;30.11;68.79;100849.97;5074660;27;66433;-36
2022/11/19 02:17:53;;;;;;;10.27;6.63;;;;;;;29.79;68.48;100797.72;5092665;27;70460;-37
2022/11/19 02:20:45;;;;;;;6.63;6.22;;;;;;;29.98;68.96;100829.25;5081794;27;65703;-39
2022/11/19 02:23:28;;;;;;;7.22;6.78;;;;;;;30.11;69.02;100841.88;5082838;27;69884;-36
2022/11/19 02:26:32;;;;;;;7.28;6.80;;;;;;;30.09;68.79;100835.88;5094601;27;65467;-38
2022/11/19 02:29:07;;;;;;;6.40;6.00;;;;;;;30.17;69.00;100830.22;5101669;27;70655;-37
2022/11/19 02:32:04;;;;;;;6.85;6.38;;;;;;;30.13;69.30;100823.56;5097043;27;66573;-36
2022/11/19 02:34:57;;;;;;;7.18;6.30;;;;;;;30.15;68.50;100813.34;5082573;27;70106;-36
2022/11/19 02:37:59;;;;;;;6.57;6.13;;;;;;;30.21;68.59;100807.06;5082706;27;68034;-36
2022/11/19 02:40:56;;;;;;;7.85;6.45;;;;;;;30.22;68.89;100802.50;5086407;27;68937;-40
2022/11/19 02:43:46;;;;;;;7.15;6.65;;;;;;;30.24;68.92;100812.06;5075018;27;66133;-37
2022/11/19 02:46:18;;;;;;;10.80;8.73;;;;;;;30.16;71.35;100796.06;5084188;27;69784;-37
2022/11/19 02:48:51;;;;;;;8.75;7.90;;;;;;;30.13;71.52;100788.38;5074321;28;65750;-37
2022/11/19 02:51:23;;;;;;;8.40;7.80;;;;;;;30.16;71.83;100792.53;5086454;27;70165;-37
2022/11/19 02:53:57;;;;;;;7.30;6.72;;;;;;;30.17;71.37;100799.59;5083565;27;66751;-37
2022/11/19 02:57:04;;;;;;;11.18;7.97;;;;;;;30.04;72.11;100792.41;5082794;27;69374;-37
2022/11/19 03:05:30;;;;;;;8.45;7.65;;;;;;;30.19;71.90;100781.28;5097844;27;65211;-39
2022/11/19 03:08:03;;;;;;;15.65;7.57;;;;;;;30.16;72.19;100777.13;5051948;27;69206;-38
2022/11/19 03:10:51;;;;;;;9.82;7.35;;;;;;;30.10;71.91;100756.34;5069771;28;66200;-39
2022/11/19 03:16:42;;;;;;;10.80;7.40;;;;;;;30.17;72.09;100759.00;5087791;27;66565;-37
2022/11/19 03:19:37;;;;;;;7.90;7.15;;;;;;;30.21;71.87;100761.06;5073327;27;70064;-39
2022/11/19 03:22:22;;;;;;;11.93;7.22;;;;;;;30.22;72.50;100753.81;5091375;27;65097;-39
2022/11/19 03:24:56;;;;;;;9.93;6.80;;;;;;;30.24;72.31;100747.13;5088505;27;69285;-37
2022/11/19 03:27:35;;;;;;;7.65;6.78;;;;;;;30.23;71.91;100742.78;5084601;27;65155;-38
2022/11/19 03:30:08;;;;;;;7.38;6.78;;;;;;;30.21;72.24;100727.78;5084314;27;70329;-37
2022/11/19 03:33:09;;;;;;;9.02;6.85;;;;;;;30.23;72.45;100729.25;5079951;27;66187;-39
2022/11/19 03:35:53;;;;;;;9.25;6.80;;;;;;;30.15;71.98;100721.38;5081832;27;70035;-36
2022/11/19 03:38:33;;;;;;;9.88;6.57;;;;;;;30.22;71.82;100724.03;5078310;27;66233;-38
2022/11/19 03:41:07;;;;;;;7.05;6.35;;;;;;;30.22;72.33;100722.16;5084095;27;70454;-38
2022/11/19 03:43:40;;;;;;;6.45;5.85;;;;;;;30.15;71.93;100701.63;5085507;27;66715;-37
2022/11/19 03:46:16;;;;;;;6.82;6.30;;;;;;;30.08;72.14;100688.13;5086425;27;70260;-37
2022/11/19 03:48:52;;;;;;;7.25;6.55;;;;;;;30.35;71.76;100720.44;5082876;27;66594;-39
2022/11/19 03:51:32;;;;;;;6.63;6.22;;;;;;;30.28;71.90;100705.06;5086753;27;70993;-37
2022/11/19 03:54:04;;;;;;;6.93;6.22;;;;;;;30.36;72.01;100700.41;5079131;27;66414;-39
2022/11/19 03:56:39;;;;;;;7.10;5.72;;;;;;;30.36;72.15;100703.13;5082997;27;70508;-36
2022/11/19 03:59:12;;;;;;;7.28;6.47;;;;;;;30.33;72.16;100673.81;5077607;27;66263;-37
2022/11/19 04:01:47;;;;;;;7.05;6.55;;;;;;;29.98;71.87;100612.06;5087303;27;70284;-37
2022/11/19 04:04:36;;;;;;;10.02;6.57;;;;;;;30.42;71.66;100678.72;5081933;27;65953;-37
2022/11/19 04:07:15;;;;;;;7.53;5.80;;;;;;;30.42;72.33;100672.47;5084213;27;70353;-37
2022/11/19 04:09:47;;;;;;;7.35;6.63;;;;;;;30.35;72.08;100655.47;5084087;27;65909;-36
2022/11/19 04:12:23;;;;;;;5.65;5.25;;;;;;;29.61;71.07;100533.47;5083339;27;70316;-39
2022/11/19 04:14:55;;;;;;;7.95;5.07;;;;;;;30.49;70.95;100654.28;5083455;27;65980;-37
2022/11/19 04:17:26;;;;;;;5.07;4.67;;;;;;;30.53;70.57;100652.78;5081252;27;69220;-37
2022/11/19 04:19:57;;;;;;;5.45;5.05;;;;;;;30.57;70.24;100653.19;5079946;27;65696;-38
2022/11/19 04:22:29;;;;;;;5.10;4.70;;;;;;;30.60;70.03;100642.72;5080482;27;69928;-37
2022/11/19 04:25:00;;;;;;;4.90;4.60;;;;;;;30.64;69.89;100648.50;5079914;27;66112;-38
2022/11/19 04:27:32;;;;;;;5.10;4.70;;;;;;;30.66;70.16;100641.81;5085250;27;70134;-37
2022/11/19 04:30:04;;;;;;;4.90;4.50;;;;;;;30.31;69.94;100565.78;5081349;27;66368;-37
2022/11/19 04:32:35;;;;;;;5.53;5.13;;;;;;;30.73;69.89;100630.94;5080340;27;69817;-37
2022/11/19 04:35:07;;;;;;;5.17;4.67;;;;;;;30.66;69.40;100625.59;5085978;27;65630;-37
2022/11/19 04:37:38;;;;;;;5.30;4.90;;;;;;;30.76;69.83;100624.22;5080445;27;70243;-37
2022/11/19 04:40:10;;;;;;;7.33;5.00;;;;;;;30.77;69.12;100615.06;5081903;27;66291;-37
2022/11/19 04:42:41;;;;;;;5.50;5.00;;;;;;;30.75;69.37;100606.34;5088818;27;69279;-37
2022/11/19 04:45:12;;;;;;;5.00;4.67;;;;;;;30.81;69.53;100608.16;5080521;27;66315;-36
2022/11/19 04:47:44;;;;;;;5.47;4.97;;;;;;;30.82;69.10;100604.41;5094362;27;70032;-38
2022/11/19 04:50:15;;;;;;;6.40;4.90;;;;;;;30.84;69.03;100596.88;5081703;27;66008;-38
2022/11/19 04:52:46;;;;;;;5.63;5.23;;;;;;;30.85;68.70;100590.41;5084329;27;70178;-36
2022/11/19 04:55:17;;;;;;;5.60;5.22;;;;;;;30.68;68.95;100558.50;5081362;27;65920;-37
2022/11/19 04:57:50;;;;;;;15.40;6.60;;;;;;;30.88;68.89;100581.84;5095167;27;69748;-37
2022/11/19 05:00:22;;;;;;;20.55;7.63;;;;;;;30.82;68.35;100572.75;5081843;27;66335;-39
2022/11/19 05:02:53;;;;;;;23.42;7.18;;;;;;;30.66;67.74;100563.31;5090124;27;70144;-38
2022/11/19 05:05:24;;;;;;;23.50;7.20;;;;;;;30.54;66.53;100556.19;5090972;27;65837;-38
2022/11/19 05:07:55;;;;;;;26.38;6.78;;;;;;;30.39;66.07;100551.13;5088832;27;69656;-38
2022/11/19 05:10:27;;;;;;;20.60;6.30;;;;;;;30.31;65.70;100551.44;5082376;27;66583;-37
2022/11/19 05:12:58;;;;;;;11.57;6.00;;;;;;;30.24;64.64;100544.22;5083896;27;70431;-38
2022/11/19 05:15:29;;;;;;;;;;;;;;;29.90;64.85;100531.22;5080866;27;65716;-37
2022/11/19 05:18:00;;;;;;;6.93;5.25;;;;;;;30.06;63.87;100523.34;5080404;27;70701;-37
2022/11/19 05:20:32;;;;;;;15.80;5.93;;;;;;;29.89;62.95;100497.09;5084569;27;65467;-37
2022/11/19 05:23:03;;;;;;;6.50;5.40;;;;;;;29.97;62.02;100518.44;5082938;27;69117;-36
2022/11/19 05:25:34;;;;;;;6.37;5.30;;;;;;;29.94;61.86;100513.47;5083519;27;66606;-37
2022/11/19 05:28:06;;;;;;;6.03;4.90;;;;;;;29.96;63.28;100511.41;5086351;27;70307;-37
2022/11/19 05:30:37;;;;;;;7.67;5.00;;;;;;;29.87;62.91;100485.69;5083400;27;67018;-36
2022/11/19 05:33:08;;;;;;;;;;;;;;;29.68;60.85;100501.88;5086110;27;70201;-37
2022/11/19 05:35:40;;;;;;;12.48;4.55;;;;;;;29.60;61.51;100438.06;5085342;27;65904;-36
2022/11/19 05:38:11;;;;;;;8.13;4.50;;;;;;;29.95;60.65;100493.50;5080836;27;69981;-36
2022/11/19 05:40:44;;;;;;;7.45;4.57;;;;;;;29.96;58.76;100500.56;5084164;27;64998;-35
2022/11/19 05:43:15;;;;;;;5.70;4.00;;;;;;;29.77;58.43;100467.25;5085839;27;70555;-36
2022/11/19 05:45:47;;;;;;;8.00;4.25;;;;;;;29.88;59.16;100488.16;5080601;27;65298;-35
2022/11/19 05:48:18;;;;;;;4.38;4.03;;;;;;;29.93;58.80;100487.50;5084169;27;70422;-38
2022/11/19 05:50:49;;;;;;;5.38;4.35;;;;;;;29.85;58.41;100475.09;5079859;28;65154;-36
2022/11/19 05:53:20;;;;;;;4.82;4.43;;;;;;;29.78;57.83;100458.94;5100817;27;70065;-38
2022/11/19 05:55:51;;;;;;;5.53;4.10;;;;;;;29.89;58.02;100467.34;5084886;27;66376;-37
2022/11/19 05:58:22;;;;;;;5.95;4.30;;;;;;;29.84;57.13;100458.03;5093717;27;69403;-35
2022/11/19 06:00:55;;;;;;;4.40;4.00;;;;;;;29.84;55.53;100455.34;5095015;27;65989;-37
2022/11/19 06:03:26;;;;;;;6.50;4.07;;;;;;;29.65;54.89;100415.81;5091681;27;69401;-37
2022/11/19 06:05:57;;;;;;;5.43;3.87;;;;;;;29.49;55.36;100389.31;5081900;27;65928;-36
2022/11/19 06:08:28;;;;;;;4.20;3.87;;;;;;;29.80;55.01;100437.91;5080007;27;70102;-36
2022/11/19 06:11:03;;;;;;;4.85;4.10;;;;;;;29.28;53.14;100347.31;5088049;27;64385;-34
2022/11/19 06:13:35;;;;;;;4.25;3.63;;;;;;;29.72;54.97;100413.84;5080367;27;70349;-35
2022/11/19 06:16:06;;;;;;;4.28;3.78;;;;;;;29.70;53.91;100418.69;5088451;27;65314;-36
2022/11/19 06:18:37;;;;;;;4.15;3.65;;;;;;;29.72;54.76;100407.63;5081415;27;69242;-37
2022/11/19 06:21:08;;;;;;;4.57;3.75;;;;;;;29.39;52.79;100355.56;5081708;27;65484;-36
2022/11/19 06:23:41;;;;;;;3.53;3.22;;;;;;;29.73;52.43;100414.72;5067507;27;69673;-37
2022/11/19 06:26:25;;;;;;;4.10;3.70;;;;;;;29.70;51.00;100415.13;5085381;27;65565;-35
2022/11/19 06:28:57;;;;;;;5.32;3.08;;;;;;;29.62;52.08;100391.91;5085562;27;70397;-36
2022/11/19 06:31:28;;;;;;;4.00;3.60;;;;;;;29.66;52.60;100397.72;5088642;27;66216;-38
2022/11/19 06:33:59;;;;;;;4.97;3.83;;;;;;;29.66;51.77;100397.72;5081053;27;69270;-36
2022/11/19 06:36:31;;;;;;;;;;;;;;;29.39;51.04;100393.38;5079963;27;65691;-39
2022/11/19 06:39:10;;;;;;;10.38;3.40;;;;;;;29.64;53.03;100372.78;5080692;27;70546;-35
2022/11/19 06:41:41;;;;;;;4.57;3.15;;;;;;;29.64;51.87;100373.59;5079056;27;67242;-38
2022/11/19 06:44:12;;;;;;;7.38;3.42;;;;;;;29.68;51.98;100374.81;5067506;28;69940;-38
2022/11/19 06:46:44;;;;;;;4.38;3.55;;;;;;;29.61;51.32;100369.47;5085535;27;66133;-36
2022/11/19 06:49:15;;;;;;;3.77;3.47;;;;;;;29.62;52.17;100370.28;5085178;27;69583;-37
2022/11/19 06:51:49;;;;;;;4.60;3.97;;;;;;;29.65;50.94;100369.88;5084258;27;65602;-36
2022/11/19 06:54:20;;;;;;;3.42;3.10;;;;;;;29.64;51.43;100373.59;5081219;27;69920;-37
2022/11/19 06:56:51;;;;;;;8.18;3.30;;;;;;;29.60;51.53;100358.88;5077165;27;66715;-36
2022/11/19 06:59:22;;;;;;;3.38;3.08;;;;;;;29.56;50.91;100354.94;5080278;27;69911;-37
2022/11/19 07:01:54;;;;;;;3.87;3.23;;;;;;;29.62;50.97;100359.47;5084323;27;66267;-39
2022/11/19 07:04:26;;;;;;;5.03;3.33;;;;;;;29.54;49.40;100357.06;5082175;27;70490;-37
2022/11/19 07:06:57;;;;;;;4.15;3.45;;;;;;;29.46;49.58;100338.44;5085507;27;65980;-38
2022/11/19 07:09:28;;;;;;;6.57;4.07;;;;;;;29.55;48.64;100358.72;5096928;27;70116;-36
2022/11/19 07:11:59;;;;;;;3.65;3.35;;;;;;;29.51;48.75;100341.31;5082306;27;66276;-37
2022/11/19 07:14:31;;;;;;;;;;;;;;;29.26;48.71;100352.97;5094949;27;70905;-37
2022/11/19 07:17:02;;;;;;;3.78;3.47;;;;;;;29.43;48.37;100339.72;5087052;27;66646;-36
2022/11/19 07:19:33;;;;;;;4.47;3.25;;;;;;;29.48;47.86;100352.56;5090343;27;70027;-38
2022/11/19 07:22:04;;;;;;;3.90;3.60;;;;;;;29.45;47.63;100352.97;5093764;27;65536;-36
2022/11/19 07:24:36;;;;;;;6.18;3.83;;;;;;;29.32;47.58;100333.16;5093880;27;70685;-36
2022/11/19 07:27:07;;;;;;;3.40;3.20;;;;;;;29.45;48.13;100352.97;5096203;27;66041;-37
2022/11/19 07:29:38;;;;;;;6.10;3.80;;;;;;;29.44;47.08;100360.25;5091987;27;69967;-37
2022/11/19 07:32:10;;;;;;;4.80;3.40;;;;;;;29.44;47.58;100351.34;5096198;27;65527;-36
2022/11/19 07:34:41;;;;;;;4.90;3.47;;;;;;;29.36;47.47;100345.19;5087392;27;70013;-36
2022/11/19 07:37:12;;;;;;;3.33;3.03;;;;;;;29.39;47.15;100352.84;5092912;27;65538;-36
2022/11/19 07:39:45;;;;;;;4.83;4.43;;;;;;;29.39;47.60;100355.56;5089970;27;69924;-36
2022/11/19 07:45:09;;;;;;;7.63;5.00;;;;;;;29.39;50.62;100358.25;5087757;27;70103;-36
2022/11/19 07:47:40;;;;;;;6.60;4.50;;;;;;;29.32;50.73;100351.25;5090452;27;66028;-37
2022/11/19 07:50:12;;;;;;;11.32;4.40;;;;;;;29.25;50.11;100343.19;5087423;27;69946;-37
2022/11/19 07:52:44;;;;;;;;;;;;;;;29.13;50.57;100364.69;5092043;27;65616;-37
2022/11/19 07:55:15;;;;;;;7.60;4.20;;;;;;;29.37;49.21;100368.44;5093658;27;70298;-38
2022/11/19 07:57:46;;;;;;;10.45;4.63;;;;;;;29.38;50.05;100359.28;5089951;27;66312;-38
2022/11/19 08:00:17;;;;;;;11.63;4.63;;;;;;;29.31;49.50;100353.13;5096078;27;69768;-36
2022/11/19 08:02:49;;;;;;;8.98;4.30;;;;;;;29.37;49.11;100367.63;5084344;27;67674;-37
2022/11/19 08:05:20;;;;;;;16.83;3.80;;;;;;;29.46;50.38;100370.88;5086416;27;69874;-38
2022/11/19 08:07:52;;;;;;;17.20;3.87;;;;;;;29.54;55.22;100373.28;5089065;27;66134;-37
2022/11/19 08:10:24;;;;;;;17.85;5.57;;;;;;;29.62;60.47;100370.28;5087817;27;69468;-38
2022/11/19 08:13:03;;;;;;;15.25;6.00;;;;;;;29.69;61.06;100354.84;5089779;27;65682;-37
2022/11/19 08:15:35;;;;;;;16.40;5.95;;;;;;;29.81;62.11;100363.88;5091494;27;70040;-38
2022/11/19 08:18:12;;;;;;;6.38;5.78;;;;;;;29.87;63.45;100361.31;5091218;27;64932;-36
2022/11/19 08:20:47;;;;;;;9.32;6.22;;;;;;;29.49;63.23;100292.06;5091270;27;69547;-35
2022/11/19 08:23:18;;;;;;;12.18;6.05;;;;;;;30.03;63.74;100366.09;5073524;27;66076;-38
2022/11/19 08:25:51;;;;;;;12.07;6.57;;;;;;;30.08;64.63;100378.94;5081889;27;70596;-37
2022/11/19 08:28:23;;;;;;;7.88;6.15;;;;;;;30.12;64.73;100377.44;5088791;27;66992;-36
2022/11/19 08:30:54;;;;;;;10.10;6.10;;;;;;;29.79;64.94;100322.69;5086930;27;68971;-35
2022/11/19 08:33:25;;;;;;;25.53;8.97;;;;;;;29.99;65.80;100359.50;5091918;27;66893;-36
2022/11/19 08:35:56;;;;;;;13.45;8.48;;;;;;;30.10;66.39;100377.66;5088166;27;68762;-36
2022/11/19 08:38:27;;;;;;;13.50;8.93;;;;;;;30.08;66.52;100385.16;5083569;27;66341;-37
2022/11/19 08:43:53;;;;;;;33.25;8.98;;;;;;;30.04;66.47;100373.16;5083201;27;65849;-37
2022/11/19 08:46:25;;;;;;;17.70;7.82;;;;;;;29.96;67.04;100359.94;5088503;27;70609;-39
2022/11/19 08:48:56;;;;;;;23.40;7.80;;;;;;;30.04;67.12;100367.75;5091468;27;66293;-39
2022/11/19 08:51:27;;;;;;;26.38;8.80;;;;;;;30.01;67.26;100365.50;5081582;27;70229;-37
2022/11/19 08:53:59;;;;;;;37.15;10.32;;;;;;;30.05;67.10;100374.81;5081221;27;65722;-37
2022/11/19 08:56:30;;;;;;;31.30;10.07;;;;;;;29.98;67.40;100376.78;5082874;27;70151;-36
2022/11/19 08:59:02;;;;;;;21.13;10.00;;;;;;;30.00;67.18;100388.19;5082452;27;65741;-36
2022/11/19 09:01:33;;;;;;;22.23;9.67;;;;;;;29.98;67.39;100387.59;5066593;27;68909;-37
2022/11/19 09:04:04;;;;;;;27.23;10.00;;;;;;;29.94;67.02;100394.50;5080599;27;66511;-40
2022/11/19 09:06:36;;;;;;;29.15;10.63;;;;;;;29.92;67.30;100391.19;5092368;27;68759;-37
2022/11/19 09:09:07;;;;;;;22.93;11.37;;;;;;;29.88;67.20;100388.13;5079510;27;66064;-36
2022/11/19 09:11:39;;;;;;;18.23;10.20;;;;;;;29.79;67.62;100376.78;5086004;27;68674;-37
2022/11/19 09:14:11;;;;;;;29.92;11.27;;;;;;;29.82;67.34;100395.25;5084234;27;66602;-39
2022/11/19 09:16:42;;;;;;;33.70;11.87;;;;;;;29.78;66.87;100396.75;5091634;27;68996;-37
2022/11/19 09:19:14;;;;;;;29.13;13.17;;;;;;;29.75;67.75;100397.19;5087482;27;65306;-36
2022/11/19 09:21:45;;;;;;;27.20;11.53;;;;;;;29.79;68.81;100389.47;5090614;27;69800;-36
2022/11/19 09:24:16;;;;;;;41.17;12.13;;;;;;;29.79;69.60;100389.47;5086343;27;66042;-38
2022/11/19 09:26:48;;;;;;;24.80;10.65;;;;;;;29.89;69.36;100407.88;5086182;27;69558;-38
2022/11/19 09:29:22;;;;;;;31.77;11.98;;;;;;;29.94;69.50;100405.31;5055631;27;66278;-36
2022/11/19 09:31:53;;;;;;;27.83;10.27;;;;;;;29.97;70.34;100408.38;5085619;27;69795;-36
2022/11/19 09:34:24;;;;;;;32.13;12.43;;;;;;;30.03;71.14;100410.22;5089132;27;65122;-38
2022/11/19 09:36:57;;;;;;;36.65;13.10;;;;;;;30.01;71.95;100406.09;5087964;27;70020;-39
2022/11/19 09:39:29;;;;;;;57.10;12.32;;;;;;;30.10;72.29;100404.72;5087538;27;66345;-38
2022/11/19 09:42:09;;;;;;;32.63;11.93;;;;;;;29.91;72.07;100378.72;5085918;27;69372;-39
2022/11/19 09:45:09;;;;;;;30.63;11.90;;;;;;;30.11;72.06;100411.75;5080473;27;65721;-37
2022/11/19 09:47:52;;;;;;;31.13;12.68;;;;;;;30.21;72.77;100419.38;5085777;27;70293;-36
2022/11/19 09:50:27;;;;;;;38.85;12.25;;;;;;;29.83;73.17;100356.34;5084914;27;66694;-36
2022/11/19 09:53:06;;;;;;;33.35;11.50;;;;;;;30.25;73.30;100418.69;5089852;27;70425;-36
2022/11/19 09:55:42;;;;;;;35.80;12.15;;;;;;;30.22;74.18;100397.50;5085869;27;66004;-35
2022/11/19 09:58:46;;;;;;;47.47;12.38;;;;;;;30.27;74.08;100427.41;5079901;27;69589;-37
2022/11/19 10:01:18;;;;;;;61.03;12.75;;;;;;;29.93;73.84;100350.41;5083043;27;66638;-35
2022/11/19 10:03:53;;;;;;;73.40;13.13;;;;;;;30.20;74.01;100398.75;5082797;27;69709;-39
2022/11/19 10:06:45;;;;;;;56.83;13.80;;;;;;;29.91;73.61;100346.28;5085016;27;66224;-37
2022/11/19 10:09:35;;;;;;;41.78;13.25;;;;;;;29.96;73.66;100365.38;5086432;27;70338;-37
2022/11/19 10:12:18;;;;;;;46.42;12.68;;;;;;;29.87;73.01;100339.69;5087388;27;66697;-37
2022/11/19 10:15:30;;;;;;;21.67;10.40;;;;;;;29.98;71.50;100352.44;5085441;27;70457;-36
2022/11/19 10:18:53;;;;;;;40.17;10.55;;;;;;;30.42;71.70;100431.59;5013737;28;66995;-36
2022/11/19 10:22:01;;;;;;;52.25;12.10;;;;;;;30.45;72.30;100440.13;5080719;27;69423;-36
2022/11/19 10:24:44;;;;;;;25.80;10.20;;;;;;;30.57;70.33;100448.28;5054175;27;66680;-38
2022/11/19 10:27:23;;;;;;;24.30;10.65;;;;;;;30.49;70.60;100419.66;5082874;27;69361;-37
2022/11/19 10:29:59;;;;;;;21.50;9.73;;;;;;;30.21;69.91;100374.19;5080694;27;66196;-38
2022/11/19 10:32:41;;;;;;;33.38;12.13;;;;;;;30.61;70.42;100435.94;5083473;27;69004;-38
2022/11/19 10:35:20;;;;;;;18.85;10.88;;;;;;;30.21;70.15;100371.50;5081292;27;65790;-38
2022/11/19 10:38:03;;;;;;;18.20;10.88;;;;;;;30.22;70.20;100375.03;5084493;27;69636;-38
2022/11/19 10:40:44;;;;;;;14.23;9.65;;;;;;;30.73;70.46;100458.47;5076942;27;65729;-37
2022/11/19 10:43:34;;;;;;;13.23;10.77;;;;;;;30.18;70.02;100363.84;5079769;27;70268;-37
2022/11/19 10:46:10;;;;;;;19.60;11.30;;;;;;;30.41;70.09;100405.59;5081559;27;66074;-36
2022/11/19 10:48:45;;;;;;;16.08;13.18;;;;;;;30.73;70.17;100466.59;5082842;27;69779;-37
2022/11/19 10:51:26;;;;;;;23.00;13.63;;;;;;;30.31;70.59;100397.19;5086190;27;66543;-37
2022/11/19 10:54:01;;;;;;;24.25;14.45;;;;;;;30.79;70.42;100477.56;5094549;27;69449;-38
2022/11/19 10:56:38;;;;;;;26.20;13.18;;;;;;;30.38;70.64;100406.88;5081624;27;66515;-36
2022/11/19 10:59:15;;;;;;;17.65;13.27;;;;;;;30.36;69.94;100408.16;5089795;27;69396;-38
2022/11/19 11:01:52;;;;;;;16.17;12.95;;;;;;;30.85;70.02;100499.16;5087602;27;65921;-39
2022/11/19 11:04:25;;;;;;;16.48;12.63;;;;;;;30.84;69.99;100488.56;5084829;27;70161;-37
2022/11/19 11:07:02;;;;;;;15.68;11.32;;;;;;;30.86;70.36;100494.56;5080476;27;64654;-37
2022/11/19 11:09:38;;;;;;;17.52;12.55;;;;;;;30.85;70.06;100490.22;5086285;27;70260;-36
2022/11/19 11:15:21;;;;;;;15.52;12.10;;;;;;;30.78;70.79;100486.72;5080429;27;69740;-36
2022/11/19 11:18:10;;;;;;;12.55;11.32;;;;;;;30.27;70.50;100427.41;5083631;27;66295;-37
2022/11/19 11:20:51;;;;;;;13.35;11.52;;;;;;;30.77;70.13;100496.75;5085472;27;70497;-38
2022/11/19 11:23:25;;;;;;;12.77;11.38;;;;;;;30.80;70.15;100506.31;5087350;27;65789;-36
2022/11/19 11:26:21;;;;;;;13.60;10.98;;;;;;;30.70;70.45;100512.22;5083143;27;69810;-37
2022/11/19 11:29:06;;;;;;;11.18;10.05;;;;;;;30.76;69.71;100515.91;5084420;27;66396;-38
2022/11/19 11:31:43;;;;;;;10.13;9.23;;;;;;;30.67;69.75;100497.31;5089763;27;70393;-41
2022/11/19 11:34:33;;;;;;;15.82;10.07;;;;;;;30.23;69.64;100447.88;5084206;27;65656;-36
2022/11/19 11:37:07;;;;;;;10.18;9.27;;;;;;;30.58;70.03;100498.66;5091064;27;70333;-37
2022/11/19 11:39:43;;;;;;;15.40;9.77;;;;;;;30.78;69.71;100530.06;5091966;27;65690;-37
2022/11/19 11:42:19;;;;;;;10.43;9.25;;;;;;;30.77;69.70;100523.00;5086428;27;69698;-38
2022/11/19 11:45:01;;;;;;;12.20;9.38;;;;;;;30.65;69.33;100512.94;5083681;27;66337;-36
2022/11/19 11:47:40;;;;;;;9.75;8.82;;;;;;;30.69;69.83;100518.72;5091123;27;69495;-36
2022/11/19 11:50:19;;;;;;;11.02;9.85;;;;;;;30.75;70.21;100525.91;5093830;27;67186;-38
2022/11/19 11:52:53;;;;;;;11.07;9.55;;;;;;;30.28;70.23;100456.16;5085115;27;70467;-39
2022/11/19 11:55:24;;;;;;;9.43;8.65;;;;;;;30.75;70.15;100533.22;5091876;27;65869;-37
2022/11/19 11:57:58;;;;;;;10.20;9.23;;;;;;;30.76;70.09;100553.81;5074167;27;69585;-36
2022/11/19 12:00:43;;;;;;;10.05;9.10;;;;;;;30.26;70.07;100476.38;5089292;27;65996;-36
2022/11/19 12:03:19;;;;;;;9.73;8.95;;;;;;;30.25;69.90;100475.50;5082091;27;69424;-37
2022/11/19 12:06:14;;;;;;;9.65;8.65;;;;;;;30.61;69.97;100552.34;5083382;27;66491;-39
2022/11/19 12:08:57;;;;;;;9.45;8.80;;;;;;;30.25;69.85;100493.63;5089009;27;69788;-38
2022/11/19 12:11:55;;;;;;;10.48;8.85;;;;;;;30.58;69.52;100544.66;5084892;27;66012;-38
2022/11/19 12:14:50;;;;;;;9.85;8.90;;;;;;;30.60;69.45;100569.63;5084047;27;70198;-37
2022/11/19 12:18:03;;;;;;;12.07;8.93;;;;;;;30.47;69.82;100567.06;5089668;27;66373;-39
2022/11/19 12:20:46;;;;;;;10.15;9.13;;;;;;;30.67;69.63;100573.13;5087925;27;70399;-38
2022/11/19 12:24:00;;;;;;;9.95;9.13;;;;;;;30.55;69.46;100579.50;5093232;27;67197;-37
2022/11/19 12:26:50;;;;;;;9.65;8.85;;;;;;;30.56;69.25;100587.38;5080439;27;69148;-37